createdAt,value
2019-06-07T00:00:57.238Z,82.83
2019-06-07T00:03:29.526Z,81.96
2019-06-07T00:05:50.708Z,82.58
2019-06-07T00:08:26.961Z,82.82
2019-06-07T00:10:44.183Z,82.83
2019-06-07T00:13:12.112Z,82.65
2019-06-07T00:15:37.666Z,82.46
2019-06-07T00:18:03.623Z,82.32
2019-06-07T00:20:29.412Z,82.29
2019-06-07T00:22:55.194Z,81.85
2019-06-07T00:25:24.273Z,82.14
2019-06-07T00:27:48.778Z,81.99
2019-06-07T00:30:39.439Z,81.93
2019-06-07T00:32:44.250Z,82.70
2019-06-07T00:35:11.711Z,82.92
2019-06-07T00:37:37.852Z,82.65
2019-06-07T00:40:14.189Z,82.26
2019-06-07T00:42:32.929Z,82.48
2019-06-07T00:44:58.751Z,82.72
2019-06-07T00:47:25.814Z,83.03
2019-06-07T00:49:51.697Z,83.89
2019-06-07T00:53:10.707Z,83.89
2019-06-07T00:54:45.190Z,83.98
2019-06-07T00:57:12.490Z,83.98
2019-06-07T00:59:38.660Z,83.71
2019-06-07T01:02:05.511Z,83.69
2019-06-07T01:04:31.438Z,83.64
2019-06-07T01:06:57.243Z,83.67
2019-06-07T01:09:25.318Z,83.63
2019-06-07T01:11:50.700Z,83.76
2019-06-07T01:14:20.296Z,83.67
2019-06-07T01:16:56.634Z,83.18
2019-06-07T01:19:11.858Z,83.53
2019-06-07T01:21:37.656Z,83.70
2019-06-07T01:24:11.828Z,83.68
2019-06-07T01:26:31.219Z,83.46
2019-06-07T01:28:57.001Z,83.54
2019-06-07T01:31:25.393Z,83.79
2019-06-07T01:33:51.453Z,83.33
2019-06-07T01:36:18.274Z,84.25
2019-06-07T01:38:45.086Z,83.81
2019-06-07T01:41:10.888Z,83.82
2019-06-07T01:43:36.663Z,83.88
2019-06-07T01:46:02.691Z,84.01
2019-06-07T01:48:47.963Z,83.87
2019-06-07T01:50:56.148Z,83.88
2019-06-07T01:53:38.506Z,83.95
2019-06-07T01:56:04.297Z,83.93
2019-06-07T01:58:30.086Z,84.10
2019-06-07T02:00:55.872Z,84.31
2019-06-07T02:03:26.269Z,84.20
2019-06-07T02:05:49.337Z,84.00
2019-06-07T02:08:15.129Z,83.66
2019-06-07T02:10:40.918Z,84.02
2019-06-07T02:13:06.707Z,83.77
2019-06-07T02:15:36.707Z,84.32
2019-06-07T02:18:00.204Z,84.33
2019-06-07T02:20:27.932Z,84.77
2019-06-07T02:22:53.782Z,84.54
2019-06-07T02:25:43.852Z,84.84
2019-06-07T02:27:47.259Z,84.07
2019-06-07T02:32:41.058Z,84.40
2019-06-07T02:35:06.838Z,84.29
2019-06-07T02:37:36.528Z,84.72
2019-06-07T02:40:00.316Z,84.57
2019-06-07T02:42:30.814Z,84.15
2019-06-07T02:44:53.898Z,83.86
2019-06-07T02:47:19.707Z,84.18
2019-06-07T02:49:45.584Z,84.05
2019-06-07T02:52:11.353Z,84.50
2019-06-07T02:54:40.505Z,84.39
2019-06-07T02:57:04.837Z,84.07
2019-06-07T02:59:54.481Z,85.15
2019-06-07T03:01:58.421Z,85.28
2019-06-07T03:04:27.168Z,86.00
2019-06-07T03:06:52.589Z,85.48
2019-06-07T03:09:18.679Z,84.50
2019-06-07T03:11:44.971Z,85.04
2019-06-07T03:14:11.472Z,84.55
2019-06-07T03:16:56.968Z,84.55
2019-06-07T03:19:26.346Z,84.32
2019-06-07T03:21:52.253Z,84.14
2019-06-07T03:24:21.747Z,84.53
2019-06-07T03:27:32.319Z,84.42
2019-06-07T03:29:15.244Z,84.44
2019-06-07T03:31:47.074Z,83.89
2019-06-07T03:34:08.710Z,84.05
2019-06-07T03:36:38.727Z,84.19
2019-06-07T03:39:03.999Z,83.69
2019-06-07T03:41:38.593Z,84.35
2019-06-07T03:43:57.463Z,84.02
2019-06-07T03:46:23.265Z,84.60
2019-06-07T03:48:49.042Z,84.47
2019-06-07T03:51:24.770Z,84.42
2019-06-07T03:53:42.520Z,83.90
2019-06-07T03:56:16.372Z,83.94
2019-06-07T03:58:49.568Z,83.81
2019-06-07T04:01:09.877Z,83.54
2019-06-07T04:03:45.393Z,83.26
2019-06-07T04:06:03.349Z,83.57
2019-06-07T04:08:30.796Z,84.02
2019-06-07T04:11:00.012Z,84.23
2019-06-07T04:13:24.499Z,84.23
2019-06-07T04:15:50.315Z,84.52
2019-06-07T04:18:16.085Z,84.34
2019-06-07T04:20:41.867Z,84.38
2019-06-07T04:23:27.325Z,84.34
2019-06-07T04:25:39.353Z,84.39
2019-06-07T04:28:03.128Z,84.24
2019-06-07T04:30:44.453Z,84.67
2019-06-07T04:33:11.215Z,84.30
2019-06-07T04:35:40.037Z,84.58
2019-06-07T04:38:05.305Z,84.53
2019-06-07T04:40:32.303Z,84.45
2019-06-07T04:42:59.471Z,84.27
2019-06-07T04:45:40.263Z,84.20
2019-06-07T04:47:54.554Z,84.42
2019-06-07T04:50:20.349Z,84.30
2019-06-07T04:52:46.132Z,84.06
2019-06-07T04:55:11.920Z,84.46
2019-06-07T04:57:40.426Z,84.09
2019-06-07T05:00:33.896Z,83.71
2019-06-07T05:02:36.835Z,83.82
2019-06-07T05:05:00.962Z,83.57
2019-06-07T05:07:26.760Z,83.14
2019-06-07T05:09:52.592Z,82.71
2019-06-07T05:12:18.321Z,82.43
2019-06-07T05:14:44.391Z,82.03
2019-06-07T05:17:10.284Z,81.52
2019-06-07T05:19:38.519Z,81.40
2019-06-07T05:22:05.232Z,81.29
2019-06-07T05:24:34.827Z,81.38
2019-06-07T05:26:58.926Z,80.75
2019-06-07T05:29:24.707Z,81.37
2019-06-07T05:31:50.691Z,80.51
2019-06-07T05:34:16.463Z,79.81
2019-06-07T05:36:44.898Z,79.69
2019-06-07T05:39:09.931Z,79.33
2019-06-07T05:41:37.135Z,79.03
2019-06-07T05:44:12.758Z,77.92
2019-06-07T05:46:33.893Z,78.47
2019-06-07T05:48:59.599Z,77.51
2019-06-07T05:51:25.387Z,76.29
2019-06-07T05:53:51.161Z,77.08
2019-06-07T05:56:17.395Z,75.70
2019-06-07T05:58:44.710Z,76.08
2019-06-07T06:01:42.908Z,74.80
2019-06-07T06:03:40.273Z,73.62
2019-06-07T06:06:05.911Z,74.14
2019-06-07T06:08:31.704Z,72.82
2019-06-07T06:10:57.490Z,73.86
2019-06-07T06:13:23.271Z,74.16
2019-06-07T06:16:00.532Z,73.06
2019-06-07T06:18:16.747Z,73.30
2019-06-07T06:21:04.666Z,71.63
2019-06-07T06:23:10.501Z,71.95
2019-06-07T06:25:38.622Z,71.43
2019-06-07T06:28:11.493Z,70.41
2019-06-07T06:30:31.670Z,69.08
2019-06-07T06:32:58.670Z,69.67
2019-06-07T06:35:24.752Z,70.97
2019-06-07T06:37:53.219Z,69.64
2019-06-07T06:40:19.617Z,68.26
2019-06-07T06:42:48.574Z,66.60
2019-06-07T06:45:13.669Z,66.76
2019-06-07T06:47:40.684Z,66.97
2019-06-07T06:50:07.659Z,66.10
2019-06-07T06:52:33.442Z,65.49
2019-06-07T06:55:01.082Z,65.57
2019-06-07T06:57:27.865Z,64.89
2019-06-07T06:59:53.699Z,67.80
2019-06-07T07:02:19.471Z,66.45
2019-06-07T07:04:46.132Z,62.47
2019-06-07T07:07:13.326Z,61.13
2019-06-07T07:09:39.211Z,60.97
2019-06-07T07:12:11.969Z,61.56
2019-06-07T07:14:34.500Z,60.51
2019-06-07T07:17:00.277Z,62.28
2019-06-07T07:19:26.093Z,57.74
2019-06-07T07:21:53.540Z,57.43
2019-06-07T07:24:22.001Z,57.30
2019-06-07T07:26:50.067Z,58.69
2019-06-07T07:29:14.919Z,57.36
2019-06-07T07:31:40.669Z,55.02
2019-06-07T07:34:31.830Z,51.77
2019-06-07T07:36:39.425Z,52.12
2019-06-07T07:39:04.983Z,49.97
2019-06-07T07:41:29.513Z,49.93
2019-06-07T07:44:04.701Z,49.82
2019-06-07T07:46:29.804Z,51.00
2019-06-07T07:48:53.936Z,50.99
2019-06-07T07:51:18.438Z,49.74
2019-06-07T07:53:54.345Z,50.01
2019-06-07T07:56:11.987Z,49.07
2019-06-07T07:58:37.774Z,47.27
2019-06-07T08:01:10.299Z,48.61
2019-06-07T08:03:31.239Z,48.74
2019-06-07T08:05:58.906Z,48.28
2019-06-07T08:08:24.712Z,47.44
2019-06-07T08:10:53.690Z,46.70
2019-06-07T08:13:25.436Z,46.10
2019-06-07T08:15:48.319Z,43.55
2019-06-07T08:18:13.537Z,44.97
2019-06-07T08:20:39.321Z,44.31
2019-06-07T08:23:05.103Z,45.68
2019-06-07T08:25:30.887Z,46.19
2019-06-07T08:27:58.594Z,46.95
2019-06-07T08:32:57.562Z,45.33
2019-06-07T08:36:03.085Z,42.44
2019-06-07T08:38:21.435Z,40.43
2019-06-07T08:40:16.333Z,39.34
2019-06-07T08:42:59.818Z,40.62
2019-06-07T08:45:10.454Z,43.27
2019-06-07T08:47:36.222Z,43.58
2019-06-07T08:50:07.657Z,43.12
2019-06-07T08:52:32.091Z,44.50
2019-06-07T08:55:02.934Z,46.18
2019-06-07T08:57:25.546Z,47.04
2019-06-07T08:59:53.038Z,46.25
2019-06-07T09:02:23.682Z,43.96
2019-06-07T09:04:46.687Z,42.22
2019-06-07T09:07:19.474Z,41.88
2019-06-07T09:09:40.145Z,40.73
2019-06-07T09:12:10.712Z,40.68
2019-06-07T09:14:33.589Z,41.28
2019-06-07T09:17:04.779Z,44.75
2019-06-07T09:19:27.048Z,40.82
2019-06-07T09:21:54.614Z,39.13
2019-06-07T09:24:20.507Z,38.34
2019-06-07T09:26:46.409Z,39.91
2019-06-07T09:29:12.315Z,39.56
2019-06-07T09:31:51.781Z,42.53
2019-06-07T09:34:13.655Z,40.75
2019-06-07T09:36:33.530Z,40.60
2019-06-07T09:39:06.433Z,38.30
2019-06-07T09:41:46.765Z,38.66
2019-06-07T09:44:14.223Z,36.19
2019-06-07T09:46:26.135Z,36.24
2019-06-07T09:51:21.090Z,38.30
2019-06-07T09:53:47.643Z,39.37
2019-06-07T09:56:14.262Z,38.56
2019-06-07T09:58:51.920Z,38.54
2019-06-07T10:01:13.141Z,34.72
2019-06-07T10:03:37.572Z,35.15
2019-06-07T10:06:11.056Z,37.08
2019-06-07T10:11:00.879Z,38.95
2019-06-07T10:13:27.487Z,38.74
2019-06-07T10:15:54.065Z,39.10
2019-06-07T10:18:20.671Z,38.82
2019-06-07T10:20:47.219Z,39.79
2019-06-07T10:23:13.833Z,36.15
2019-06-07T10:25:40.382Z,35.36
2019-06-07T10:28:08.232Z,38.70
2019-06-07T10:30:34.941Z,38.97
2019-06-07T10:33:02.197Z,38.06
2019-06-07T10:35:28.948Z,37.56
2019-06-07T10:37:58.211Z,37.22
2019-06-07T10:40:24.020Z,36.89
2019-06-07T10:42:50.636Z,37.81
2019-06-07T10:45:17.181Z,38.05
2019-06-07T10:47:43.792Z,38.92
2019-06-07T10:50:12.314Z,39.11
2019-06-07T10:52:38.931Z,39.52
2019-06-07T10:55:06.561Z,36.26
2019-06-07T10:57:33.222Z,36.33
2019-06-07T10:59:59.853Z,35.40
2019-06-07T11:02:26.389Z,35.13
2019-06-07T11:04:52.999Z,36.23
2019-06-07T11:10:46.956Z,36.95
2019-06-07T11:13:12.872Z,35.50
2019-06-07T11:15:38.814Z,36.58
2019-06-07T11:18:06.224Z,37.74
2019-06-07T11:20:32.239Z,37.63
2019-06-07T11:22:58.157Z,38.26
2019-06-07T11:25:24.172Z,37.18
2019-06-07T11:27:50.097Z,35.66
2019-06-07T11:30:16.190Z,35.48
2019-06-07T11:32:42.235Z,35.86
2019-06-07T11:35:08.645Z,34.75
2019-06-07T11:37:34.585Z,34.38
2019-06-07T11:40:00.492Z,34.58
2019-06-07T11:42:26.412Z,36.07
2019-06-07T11:44:56.629Z,33.97
2019-06-07T11:47:20.172Z,35.30
2019-06-07T11:49:46.061Z,35.67
2019-06-07T11:52:11.982Z,35.39
2019-06-07T11:54:38.080Z,36.10
2019-06-07T11:57:04.001Z,37.30
2019-06-07T11:59:29.904Z,38.71
2019-06-07T12:01:55.855Z,38.43
2019-06-07T12:04:32.384Z,38.52
2019-06-07T12:06:49.612Z,36.68
2019-06-07T12:09:16.831Z,40.71
2019-06-07T12:11:42.936Z,40.34
2019-06-07T12:14:08.888Z,38.77
2019-06-07T12:16:34.760Z,39.28
2019-06-07T12:19:00.713Z,38.68
2019-06-07T12:21:26.614Z,38.11
2019-06-07T12:23:52.660Z,36.61
2019-06-07T12:26:18.731Z,36.96
2019-06-07T12:28:44.683Z,35.96
2019-06-07T12:31:10.909Z,37.50
2019-06-07T12:33:36.942Z,40.03
2019-06-07T12:36:02.953Z,39.30
2019-06-07T12:38:28.878Z,39.59
2019-06-07T12:40:57.958Z,40.68
2019-06-07T12:43:23.306Z,40.64
2019-06-07T12:45:49.297Z,40.34
2019-06-07T12:48:18.562Z,39.42
2019-06-07T12:50:44.006Z,38.98
2019-06-07T12:53:09.969Z,40.17
2019-06-07T12:55:35.888Z,40.78
2019-06-07T12:58:01.773Z,40.49
2019-06-07T13:00:27.722Z,42.08
2019-06-07T13:02:53.660Z,42.45
2019-06-07T13:05:20.014Z,42.12
2019-06-07T13:07:46.011Z,41.67
2019-06-07T13:10:13.949Z,41.42
2019-06-07T13:12:39.844Z,40.64
2019-06-07T13:15:06.383Z,43.49
2019-06-07T13:17:32.468Z,45.74
2019-06-07T13:19:58.389Z,44.84
2019-06-07T13:22:24.464Z,45.37
2019-06-07T13:24:50.427Z,44.38
2019-06-07T13:27:16.338Z,42.31
2019-06-07T13:29:42.289Z,42.22
2019-06-07T13:32:08.199Z,42.82
2019-06-07T13:34:34.085Z,42.08
2019-06-07T13:37:00.024Z,42.10
2019-06-07T13:39:27.860Z,41.98
2019-06-07T13:41:53.826Z,40.73
2019-06-07T13:44:20.947Z,41.25
2019-06-07T13:46:46.877Z,43.28
2019-06-07T13:49:12.740Z,44.85
2019-06-07T13:51:38.734Z,44.70
2019-06-07T13:54:04.594Z,41.76
2019-06-07T13:56:30.486Z,44.33
2019-06-07T13:58:56.340Z,46.25
2019-06-07T14:01:22.527Z,47.29
2019-06-07T14:03:48.531Z,48.14
2019-06-07T14:06:14.412Z,47.98
2019-06-07T14:08:40.268Z,45.21
2019-06-07T14:11:06.170Z,43.43
2019-06-07T14:13:32.030Z,43.37
2019-06-07T14:15:57.887Z,43.97
2019-06-07T14:18:24.405Z,43.05
2019-06-07T14:20:50.333Z,44.08
2019-06-07T14:23:16.222Z,46.88
2019-06-07T14:25:42.089Z,47.36
2019-06-07T14:28:11.491Z,46.01
2019-06-07T14:30:35.741Z,47.47
2019-06-07T14:33:01.690Z,46.09
2019-06-07T14:35:28.903Z,45.34
2019-06-07T14:37:54.831Z,47.19
2019-06-07T14:40:20.789Z,47.58
2019-06-07T14:42:46.672Z,48.09
2019-06-07T14:45:13.432Z,46.95
2019-06-07T14:47:39.314Z,46.81
2019-06-07T14:50:07.177Z,45.29
2019-06-07T14:52:33.723Z,46.32
2019-06-07T14:55:00.825Z,47.30
2019-06-07T14:57:26.981Z,48.22
2019-06-07T14:59:52.876Z,47.78
2019-06-07T15:02:18.840Z,49.12
2019-06-07T15:04:45.047Z,48.59
2019-06-07T15:07:13.436Z,48.25
2019-06-07T15:09:39.415Z,49.63
2019-06-07T15:12:05.257Z,49.15
2019-06-07T15:14:31.475Z,50.19
2019-06-07T15:16:57.407Z,49.30
2019-06-07T15:19:24.278Z,49.96
2019-06-07T15:21:50.355Z,49.86
2019-06-07T15:24:16.358Z,50.25
2019-06-07T15:26:42.215Z,50.48
2019-06-07T15:29:08.109Z,51.43
2019-06-07T15:31:34.597Z,50.87
2019-06-07T15:34:01.929Z,50.82
2019-06-07T15:36:28.304Z,50.27
2019-06-07T15:38:54.230Z,50.79
2019-06-07T15:41:20.100Z,51.13
2019-06-07T15:43:45.973Z,51.00
2019-06-07T15:46:11.966Z,52.21
2019-06-07T15:48:38.325Z,52.76
2019-06-07T15:51:04.309Z,52.84
2019-06-07T15:53:34.036Z,52.25
2019-06-07T15:55:57.972Z,52.43
2019-06-07T15:58:23.865Z,52.58
2019-06-07T16:00:50.221Z,53.01
2019-06-07T16:03:16.258Z,52.33
2019-06-07T16:05:43.217Z,53.40
2019-06-07T16:08:09.189Z,52.97
2019-06-07T16:10:35.083Z,52.84
2019-06-07T16:13:01.237Z,52.99
2019-06-07T16:15:27.127Z,52.98
2019-06-07T16:17:52.985Z,53.09
2019-06-07T16:20:19.078Z,53.07
2019-06-07T16:22:44.939Z,53.92
2019-06-07T16:25:11.229Z,54.17
2019-06-07T16:27:38.373Z,53.03
2019-06-07T16:30:09.773Z,53.41
2019-06-07T16:32:37.173Z,53.70
2019-06-07T16:35:04.553Z,53.53
2019-06-07T16:37:30.410Z,54.21
2019-06-07T16:39:56.301Z,54.39
2019-06-07T16:42:22.241Z,55.11
2019-06-07T16:44:48.938Z,55.41
2019-06-07T16:47:14.892Z,55.53
2019-06-07T16:49:40.893Z,55.05
2019-06-07T16:52:06.794Z,55.05
2019-06-07T16:54:35.527Z,55.07
2019-06-07T16:57:00.429Z,55.31
2019-06-07T16:59:26.314Z,54.84
2019-06-07T17:01:52.202Z,55.25
2019-06-07T17:04:18.387Z,55.55
2019-06-07T17:06:44.227Z,55.72
2019-06-07T17:09:10.085Z,55.65
2019-06-07T17:11:36.069Z,55.89
2019-06-07T17:14:02.437Z,56.20
2019-06-07T17:16:28.456Z,56.69
2019-06-07T17:18:54.400Z,56.72
2019-06-07T17:21:20.274Z,56.96
2019-06-07T17:23:47.313Z,57.05
2019-06-07T17:26:13.329Z,56.62
2019-06-07T17:28:39.671Z,56.28
2019-06-07T17:31:05.579Z,56.49
2019-06-07T17:33:31.566Z,56.60
2019-06-07T17:35:57.449Z,56.34
2019-06-07T17:38:23.306Z,56.61
2019-06-07T17:40:49.327Z,56.51
2019-06-07T17:43:15.164Z,56.12
2019-06-07T17:45:41.353Z,56.25
2019-06-07T17:48:07.318Z,56.19
2019-06-07T17:50:33.169Z,56.05
2019-06-07T17:52:59.024Z,56.28
2019-06-07T17:55:24.889Z,56.57
2019-06-07T17:57:50.925Z,57.40
2019-06-07T18:00:34.311Z,58.10
2019-06-07T18:02:46.854Z,58.61
2019-06-07T18:05:13.002Z,59.24
2019-06-07T18:07:38.996Z,58.55
2019-06-07T18:10:07.848Z,58.36
2019-06-07T18:12:33.825Z,58.39
2019-06-07T18:14:59.779Z,58.23
2019-06-07T18:17:34.088Z,58.92
2019-06-07T18:19:53.444Z,59.06
2019-06-07T18:22:19.337Z,59.32
2019-06-07T18:24:46.467Z,59.48
2019-06-07T18:27:12.394Z,59.64
2019-06-07T18:29:38.251Z,59.77
2019-06-07T18:32:04.147Z,60.27
2019-06-07T18:34:30.004Z,60.56
2019-06-07T18:36:55.889Z,60.83
2019-06-07T18:39:21.749Z,61.02
2019-06-07T18:41:48.834Z,61.47
2019-06-07T18:44:21.495Z,61.67
2019-06-07T18:46:42.714Z,61.76
2019-06-07T18:49:08.622Z,62.35
2019-06-07T18:51:34.460Z,62.61
2019-06-07T18:54:00.349Z,62.88
2019-06-07T18:56:26.204Z,63.17
2019-06-07T18:58:53.140Z,63.71
2019-06-07T19:01:19.049Z,63.91
2019-06-07T19:03:47.133Z,64.28
2019-06-07T19:06:12.927Z,64.43
2019-06-07T19:08:38.813Z,64.71
2019-06-07T19:11:04.673Z,64.93
2019-06-07T19:13:30.558Z,65.14
2019-06-07T19:15:57.467Z,65.29
2019-06-07T19:18:23.417Z,65.23
2019-06-07T19:20:50.607Z,65.64
2019-06-07T19:23:16.993Z,65.99
2019-06-07T19:25:42.865Z,65.91
2019-06-07T19:28:08.761Z,65.99
2019-06-07T19:30:34.626Z,66.45
2019-06-07T19:33:01.506Z,66.63
2019-06-07T19:35:27.432Z,67.11
2019-06-07T19:37:53.783Z,67.46
2019-06-07T19:40:20.023Z,67.47
2019-06-07T19:42:45.885Z,67.56
2019-06-07T19:45:30.702Z,67.75
2019-06-07T19:47:40.455Z,68.59
2019-06-07T19:50:06.676Z,68.31
2019-06-07T19:52:32.631Z,67.88
2019-06-07T19:55:00.149Z,68.40
2019-06-07T19:57:26.175Z,68.87
2019-06-07T19:59:53.275Z,69.06
2019-06-07T20:02:19.256Z,69.30
2019-06-07T20:04:45.138Z,69.47
2019-06-07T20:07:11.035Z,69.93
2019-06-07T20:09:36.939Z,70.33
2019-06-07T20:12:02.993Z,70.61
2019-06-07T20:14:28.903Z,70.73
2019-06-07T20:16:55.188Z,71.10
2019-06-07T20:19:21.137Z,71.02
2019-06-07T20:21:47.034Z,71.03
2019-06-07T20:24:26.293Z,71.55
2019-06-07T20:26:40.691Z,71.54
2019-06-07T20:29:14.575Z,71.82
2019-06-07T20:31:34.343Z,72.23
2019-06-07T20:34:00.594Z,72.56
2019-06-07T20:36:26.485Z,72.62
2019-06-07T20:38:52.347Z,73.25
2019-06-07T20:41:18.234Z,73.47
2019-06-07T20:43:44.593Z,73.62
2019-06-07T20:46:10.480Z,73.59
2019-06-07T20:48:36.363Z,73.26
2019-06-07T20:51:02.806Z,73.27
2019-06-07T20:53:28.810Z,73.51
2019-06-07T20:55:54.703Z,73.64
2019-06-07T20:58:20.581Z,74.19
2019-06-07T21:00:46.441Z,74.57
2019-06-07T21:03:12.369Z,75.10
2019-06-07T21:05:38.253Z,74.76
2019-06-07T21:08:08.928Z,75.44
2019-06-07T21:10:31.989Z,75.47
2019-06-07T21:12:57.873Z,75.54
2019-06-07T21:15:23.738Z,75.94
2019-06-07T21:17:49.629Z,76.50
2019-06-07T21:20:15.486Z,76.07
2019-06-07T21:22:41.367Z,77.05
2019-06-07T21:25:09.523Z,77.58
2019-06-07T21:27:35.678Z,77.47
2019-06-07T21:30:03.409Z,77.10
2019-06-07T21:32:29.440Z,77.11
2019-06-07T21:34:55.305Z,76.82
2019-06-07T21:37:21.198Z,78.40
2019-06-07T21:39:49.925Z,81.60
2019-06-07T21:42:14.852Z,84.01
2019-06-07T21:44:40.828Z,85.69
2019-06-07T21:47:06.722Z,85.94
2019-06-07T21:49:32.608Z,86.13
2019-06-07T21:51:58.978Z,86.49
2019-06-07T21:54:24.866Z,86.80
2019-06-07T21:56:50.851Z,86.69
2019-06-07T21:59:16.785Z,87.53
2019-06-07T22:01:42.777Z,87.36
2019-06-07T22:04:09.643Z,87.83
2019-06-07T22:06:35.636Z,87.49
2019-06-07T22:09:01.519Z,87.30
2019-06-07T22:11:27.383Z,87.51
2019-06-07T22:13:53.279Z,87.73
2019-06-07T22:16:28.563Z,87.59
2019-06-07T22:18:47.007Z,88.36
2019-06-07T22:21:12.978Z,89.19
2019-06-07T22:23:38.866Z,89.50
2019-06-07T22:26:04.903Z,90.02
2019-06-07T22:28:30.831Z,90.25
2019-06-07T22:30:56.689Z,90.51
2019-06-07T22:33:22.581Z,90.36
2019-06-07T22:35:48.441Z,90.58
2019-06-07T22:38:14.373Z,91.26
2019-06-07T22:40:40.299Z,91.19
2019-06-07T22:43:07.512Z,91.66
2019-06-07T22:45:33.485Z,91.86
2019-06-07T22:47:59.348Z,92.17
2019-06-07T22:50:25.395Z,91.94
2019-06-07T22:52:51.214Z,92.09
2019-06-07T22:55:18.197Z,92.01
2019-06-07T22:57:57.662Z,92.29
2019-06-07T23:00:24.536Z,92.34
2019-06-07T23:02:50.532Z,92.19
2019-06-07T23:05:16.828Z,92.47
2019-06-07T23:07:42.790Z,92.58
2019-06-07T23:10:09.061Z,93.47
2019-06-07T23:12:34.947Z,92.89
2019-06-07T23:15:00.840Z,92.72
2019-06-07T23:17:26.697Z,92.79
2019-06-07T23:19:52.582Z,93.19
2019-06-07T23:22:18.452Z,92.59
2019-06-07T23:24:44.348Z,92.43
2019-06-07T23:27:11.099Z,92.40
2019-06-07T23:29:38.017Z,93.48
2019-06-07T23:32:03.880Z,93.05
2019-06-07T23:34:29.847Z,92.97
2019-06-07T23:36:55.737Z,93.09
2019-06-07T23:39:22.499Z,93.08
2019-06-07T23:41:48.513Z,93.35
2019-06-07T23:44:15.341Z,93.18
2019-06-07T23:46:41.285Z,92.98
2019-06-07T23:49:07.158Z,93.06
2019-06-07T23:51:33.052Z,92.75
2019-06-07T23:53:58.922Z,92.49
2019-06-07T23:56:24.915Z,92.84
2019-06-07T23:58:50.848Z,92.84
